sensor_id;sensor_type;location;lat;lon;timestamp;temperature;humidity
18974;DHT22;9621;48.690;9.466;2023-05-20T00:00:26;10.40;98.00
18974;DHT22;9621;48.690;9.466;2023-05-20T00:02:53;10.40;98.10
18974;DHT22;9621;48.690;9.466;2023-05-20T00:05:22;10.40;98.10
18974;DHT22;9621;48.690;9.466;2023-05-20T00:07:48;10.40;98.10
18974;DHT22;9621;48.690;9.466;2023-05-20T00:10:15;10.40;98.30
18974;DHT22;9621;48.690;9.466;2023-05-20T00:12:43;10.40;98.40
18974;DHT22;9621;48.690;9.466;2023-05-20T00:15:10;10.40;98.60
18974;DHT22;9621;48.690;9.466;2023-05-20T00:17:37;10.30;98.50
18974;DHT22;9621;48.690;9.466;2023-05-20T00:20:05;10.30;98.70
18974;DHT22;9621;48.690;9.466;2023-05-20T00:22:32;10.20;98.70
18974;DHT22;9621;48.690;9.466;2023-05-20T00:24:59;10.20;98.70
18974;DHT22;9621;48.690;9.466;2023-05-20T00:27:26;10.20;98.80
18974;DHT22;9621;48.690;9.466;2023-05-20T00:29:55;10.10;98.90
18974;DHT22;9621;48.690;9.466;2023-05-20T00:32:22;10.10;99.10
18974;DHT22;9621;48.690;9.466;2023-05-20T00:34:55;10.20;99.00
18974;DHT22;9621;48.690;9.466;2023-05-20T00:37:23;10.20;99.70
18974;DHT22;9621;48.690;9.466;2023-05-20T00:39:50;10.10;99.20
18974;DHT22;9621;48.690;9.466;2023-05-20T00:42:20;10.10;99.30
18974;DHT22;9621;48.690;9.466;2023-05-20T00:44:47;10.00;99.80
18974;DHT22;9621;48.690;9.466;2023-05-20T00:47:17;10.10;99.60
18974;DHT22;9621;48.690;9.466;2023-05-20T00:49:45;10.00;99.90
18974;DHT22;9621;48.690;9.466;2023-05-20T00:52:13;10.00;99.80
18974;DHT22;9621;48.690;9.466;2023-05-20T00:54:40;9.90;99.90
18974;DHT22;9621;48.690;9.466;2023-05-20T00:57:08;9.90;99.90
18974;DHT22;9621;48.690;9.466;2023-05-20T00:59:36;9.90;99.90
18974;DHT22;9621;48.690;9.466;2023-05-20T01:02:04;9.80;99.90
18974;DHT22;9621;48.690;9.466;2023-05-20T01:04:33;9.80;99.90
18974;DHT22;9621;48.690;9.466;2023-05-20T01:07:01;9.80;99.90
18974;DHT22;9621;48.690;9.466;2023-05-20T01:09:29;9.80;99.90
18974;DHT22;9621;48.690;9.466;2023-05-20T01:12:02;9.80;99.90
18974;DHT22;9621;48.690;9.466;2023-05-20T01:14:34;9.70;99.90
18974;DHT22;9621;48.690;9.466;2023-05-20T01:17:02;9.60;99.90
18974;DHT22;9621;48.690;9.466;2023-05-20T01:19:40;9.60;99.90
18974;DHT22;9621;48.690;9.466;2023-05-20T01:22:09;9.50;99.90
18974;DHT22;9621;48.690;9.466;2023-05-20T01:24:39;9.50;99.90
18974;DHT22;9621;48.690;9.466;2023-05-20T01:27:07;9.30;99.90
18974;DHT22;9621;48.690;9.466;2023-05-20T01:29:35;9.30;99.90
18974;DHT22;9621;48.690;9.466;2023-05-20T01:32:04;9.20;99.90
18974;DHT22;9621;48.690;9.466;2023-05-20T01:34:34;9.10;99.90
18974;DHT22;9621;48.690;9.466;2023-05-20T01:37:03;9.10;99.90
18974;DHT22;9621;48.690;9.466;2023-05-20T01:39:33;9.00;99.90
18974;DHT22;9621;48.690;9.466;2023-05-20T01:42:04;8.90;99.90
18974;DHT22;9621;48.690;9.466;2023-05-20T01:44:31;8.90;99.90
18974;DHT22;9621;48.690;9.466;2023-05-20T01:46:59;8.90;99.90
18974;DHT22;9621;48.690;9.466;2023-05-20T01:49:26;8.90;99.90
18974;DHT22;9621;48.690;9.466;2023-05-20T01:51:53;8.80;99.90
18974;DHT22;9621;48.690;9.466;2023-05-20T01:54:20;8.70;99.90
18974;DHT22;9621;48.690;9.466;2023-05-20T01:56:47;8.70;99.90
18974;DHT22;9621;48.690;9.466;2023-05-20T01:59:16;8.60;99.90
18974;DHT22;9621;48.690;9.466;2023-05-20T02:01:43;8.50;99.90
18974;DHT22;9621;48.690;9.466;2023-05-20T02:04:10;8.50;99.90
18974;DHT22;9621;48.690;9.466;2023-05-20T02:06:37;8.40;99.90
18974;DHT22;9621;48.690;9.466;2023-05-20T02:09:04;8.50;99.90
18974;DHT22;9621;48.690;9.466;2023-05-20T02:11:31;8.40;99.90
18974;DHT22;9621;48.690;9.466;2023-05-20T02:13:58;8.30;99.90
18974;DHT22;9621;48.690;9.466;2023-05-20T02:16:26;8.30;99.90
18974;DHT22;9621;48.690;9.466;2023-05-20T02:18:53;8.30;99.90
18974;DHT22;9621;48.690;9.466;2023-05-20T02:21:20;8.20;99.90
18974;DHT22;9621;48.690;9.466;2023-05-20T02:23:47;8.20;99.90
18974;DHT22;9621;48.690;9.466;2023-05-20T02:26:14;8.20;99.90
18974;DHT22;9621;48.690;9.466;2023-05-20T02:28:41;8.20;99.90
18974;DHT22;9621;48.690;9.466;2023-05-20T02:31:11;8.20;99.90
18974;DHT22;9621;48.690;9.466;2023-05-20T02:33:39;8.10;99.90
18974;DHT22;9621;48.690;9.466;2023-05-20T02:36:06;8.10;99.90
18974;DHT22;9621;48.690;9.466;2023-05-20T02:38:33;8.00;99.90
18974;DHT22;9621;48.690;9.466;2023-05-20T02:41:00;8.00;99.90
18974;DHT22;9621;48.690;9.466;2023-05-20T02:43:29;8.00;99.90
18974;DHT22;9621;48.690;9.466;2023-05-20T02:45:56;7.90;99.90
18974;DHT22;9621;48.690;9.466;2023-05-20T02:48:23;8.00;99.90
18974;DHT22;9621;48.690;9.466;2023-05-20T02:50:51;7.90;99.90
18974;DHT22;9621;48.690;9.466;2023-05-20T02:53:18;7.90;99.90
18974;DHT22;9621;48.690;9.466;2023-05-20T02:55:45;7.90;99.90
18974;DHT22;9621;48.690;9.466;2023-05-20T02:58:13;7.80;99.90
18974;DHT22;9621;48.690;9.466;2023-05-20T03:00:40;7.80;99.90
18974;DHT22;9621;48.690;9.466;2023-05-20T03:03:07;7.80;99.90
18974;DHT22;9621;48.690;9.466;2023-05-20T03:05:35;7.80;99.90
18974;DHT22;9621;48.690;9.466;2023-05-20T03:08:07;7.80;99.90
18974;DHT22;9621;48.690;9.466;2023-05-20T03:10:35;7.80;99.90
18974;DHT22;9621;48.690;9.466;2023-05-20T03:13:03;7.80;99.90
18974;DHT22;9621;48.690;9.466;2023-05-20T03:15:33;7.70;99.90
18974;DHT22;9621;48.690;9.466;2023-05-20T03:17:59;7.70;99.90
18974;DHT22;9621;48.690;9.466;2023-05-20T03:20:26;7.60;99.90
18974;DHT22;9621;48.690;9.466;2023-05-20T03:22:54;7.60;99.90
18974;DHT22;9621;48.690;9.466;2023-05-20T03:25:23;7.50;99.90
18974;DHT22;9621;48.690;9.466;2023-05-20T03:27:50;7.50;99.90
18974;DHT22;9621;48.690;9.466;2023-05-20T03:30:17;7.40;99.90
18974;DHT22;9621;48.690;9.466;2023-05-20T03:32:44;7.40;99.90
18974;DHT22;9621;48.690;9.466;2023-05-20T03:35:11;7.40;99.90
18974;DHT22;9621;48.690;9.466;2023-05-20T03:37:38;7.40;99.90
18974;DHT22;9621;48.690;9.466;2023-05-20T03:40:06;7.40;99.90
18974;DHT22;9621;48.690;9.466;2023-05-20T03:42:36;7.40;99.90
18974;DHT22;9621;48.690;9.466;2023-05-20T03:45:04;7.40;99.90
18974;DHT22;9621;48.690;9.466;2023-05-20T03:47:31;7.50;99.90
18974;DHT22;9621;48.690;9.466;2023-05-20T03:49:58;7.60;99.90
18974;DHT22;9621;48.690;9.466;2023-05-20T03:52:25;7.60;99.90
18974;DHT22;9621;48.690;9.466;2023-05-20T03:54:52;7.70;99.90
18974;DHT22;9621;48.690;9.466;2023-05-20T03:57:19;7.70;99.90
18974;DHT22;9621;48.690;9.466;2023-05-20T03:59:48;7.70;99.90
18974;DHT22;9621;48.690;9.466;2023-05-20T04:02:15;7.80;99.90
18974;DHT22;9621;48.690;9.466;2023-05-20T04:04:42;7.90;99.90
18974;DHT22;9621;48.690;9.466;2023-05-20T04:07:09;8.00;99.90
18974;DHT22;9621;48.690;9.466;2023-05-20T04:09:37;8.00;99.90
18974;DHT22;9621;48.690;9.466;2023-05-20T04:12:04;8.00;99.90
18974;DHT22;9621;48.690;9.466;2023-05-20T04:14:32;8.10;99.90
18974;DHT22;9621;48.690;9.466;2023-05-20T04:17:02;8.20;99.90
18974;DHT22;9621;48.690;9.466;2023-05-20T04:19:30;8.40;99.90
18974;DHT22;9621;48.690;9.466;2023-05-20T04:21:57;8.30;99.90
18974;DHT22;9621;48.690;9.466;2023-05-20T04:24:24;8.50;99.90
18974;DHT22;9621;48.690;9.466;2023-05-20T04:26:52;8.50;99.90
18974;DHT22;9621;48.690;9.466;2023-05-20T04:29:19;8.60;99.90
18974;DHT22;9621;48.690;9.466;2023-05-20T04:31:46;8.70;99.90
18974;DHT22;9621;48.690;9.466;2023-05-20T04:34:14;8.80;99.90
18974;DHT22;9621;48.690;9.466;2023-05-20T04:36:44;8.90;99.90
18974;DHT22;9621;48.690;9.466;2023-05-20T04:39:11;9.00;99.90
18974;DHT22;9621;48.690;9.466;2023-05-20T04:41:38;9.10;99.90
18974;DHT22;9621;48.690;9.466;2023-05-20T04:44:05;9.20;99.90
18974;DHT22;9621;48.690;9.466;2023-05-20T04:46:32;9.30;99.90
18974;DHT22;9621;48.690;9.466;2023-05-20T04:48:59;9.40;99.90
18974;DHT22;9621;48.690;9.466;2023-05-20T04:51:27;9.40;99.90
18974;DHT22;9621;48.690;9.466;2023-05-20T04:53:54;9.50;99.90
18974;DHT22;9621;48.690;9.466;2023-05-20T04:56:23;9.50;99.90
18974;DHT22;9621;48.690;9.466;2023-05-20T04:58:50;9.60;99.90
18974;DHT22;9621;48.690;9.466;2023-05-20T05:01:17;9.70;99.90
18974;DHT22;9621;48.690;9.466;2023-05-20T05:03:44;9.80;99.90
18974;DHT22;9621;48.690;9.466;2023-05-20T05:06:11;9.90;99.90
18974;DHT22;9621;48.690;9.466;2023-05-20T05:08:39;10.00;99.90
18974;DHT22;9621;48.690;9.466;2023-05-20T05:11:07;10.20;99.90
18974;DHT22;9621;48.690;9.466;2023-05-20T05:13:34;10.20;99.90
18974;DHT22;9621;48.690;9.466;2023-05-20T05:16:01;10.30;99.90
18974;DHT22;9621;48.690;9.466;2023-05-20T05:18:28;10.40;99.90
18974;DHT22;9621;48.690;9.466;2023-05-20T05:21:00;10.40;99.90
18974;DHT22;9621;48.690;9.466;2023-05-20T05:23:27;10.50;99.90
18974;DHT22;9621;48.690;9.466;2023-05-20T05:25:55;10.60;99.90
18974;DHT22;9621;48.690;9.466;2023-05-20T05:28:22;10.70;99.90
18974;DHT22;9621;48.690;9.466;2023-05-20T05:30:50;10.80;99.90
18974;DHT22;9621;48.690;9.466;2023-05-20T05:33:17;10.90;99.90
18974;DHT22;9621;48.690;9.466;2023-05-20T05:35:44;11.10;99.90
18974;DHT22;9621;48.690;9.466;2023-05-20T05:38:10;11.20;99.90
18974;DHT22;9621;48.690;9.466;2023-05-20T05:40:37;11.30;99.90
18974;DHT22;9621;48.690;9.466;2023-05-20T05:43:06;11.40;99.90
18974;DHT22;9621;48.690;9.466;2023-05-20T05:45:33;11.60;99.90
18974;DHT22;9621;48.690;9.466;2023-05-20T05:48:00;11.80;99.90
18974;DHT22;9621;48.690;9.466;2023-05-20T05:50:26;11.90;99.90
18974;DHT22;9621;48.690;9.466;2023-05-20T05:52:53;12.10;99.90
18974;DHT22;9621;48.690;9.466;2023-05-20T05:55:20;12.20;99.90
18974;DHT22;9621;48.690;9.466;2023-05-20T05:57:48;12.40;99.90
18974;DHT22;9621;48.690;9.466;2023-05-20T06:00:17;12.50;99.90
18974;DHT22;9621;48.690;9.466;2023-05-20T06:02:44;12.70;99.90
18974;DHT22;9621;48.690;9.466;2023-05-20T06:05:11;12.90;99.90
18974;DHT22;9621;48.690;9.466;2023-05-20T06:07:38;13.00;99.90
18974;DHT22;9621;48.690;9.466;2023-05-20T06:10:06;13.20;99.90
18974;DHT22;9621;48.690;9.466;2023-05-20T06:12:33;13.30;99.90
18974;DHT22;9621;48.690;9.466;2023-05-20T06:15:00;13.40;99.90
18974;DHT22;9621;48.690;9.466;2023-05-20T06:17:28;13.50;99.90
18974;DHT22;9621;48.690;9.466;2023-05-20T06:19:55;13.60;99.90
18974;DHT22;9621;48.690;9.466;2023-05-20T06:22:22;13.70;99.90
18974;DHT22;9621;48.690;9.466;2023-05-20T06:24:49;13.80;99.90
18974;DHT22;9621;48.690;9.466;2023-05-20T06:27:16;14.00;99.90
18974;DHT22;9621;48.690;9.466;2023-05-20T06:29:42;14.20;99.90
18974;DHT22;9621;48.690;9.466;2023-05-20T06:32:09;14.30;99.90
18974;DHT22;9621;48.690;9.466;2023-05-20T06:34:38;14.50;99.90
18974;DHT22;9621;48.690;9.466;2023-05-20T06:37:06;14.60;99.90
18974;DHT22;9621;48.690;9.466;2023-05-20T06:39:32;14.70;99.90
18974;DHT22;9621;48.690;9.466;2023-05-20T06:41:59;14.80;99.90
18974;DHT22;9621;48.690;9.466;2023-05-20T06:44:26;14.90;99.90
18974;DHT22;9621;48.690;9.466;2023-05-20T06:46:53;15.10;99.90
18974;DHT22;9621;48.690;9.466;2023-05-20T06:49:20;15.20;99.90
18974;DHT22;9621;48.690;9.466;2023-05-20T06:51:48;15.40;99.90
18974;DHT22;9621;48.690;9.466;2023-05-20T06:54:15;15.60;99.90
18974;DHT22;9621;48.690;9.466;2023-05-20T06:56:42;15.80;99.90
18974;DHT22;9621;48.690;9.466;2023-05-20T06:59:10;16.10;99.90
18974;DHT22;9621;48.690;9.466;2023-05-20T07:01:37;16.50;99.90
18974;DHT22;9621;48.690;9.466;2023-05-20T07:04:04;16.80;99.90
18974;DHT22;9621;48.690;9.466;2023-05-20T07:06:31;17.20;99.90
18974;DHT22;9621;48.690;9.466;2023-05-20T07:08:59;17.70;99.90
18974;DHT22;9621;48.690;9.466;2023-05-20T07:11:26;18.10;98.70
18974;DHT22;9621;48.690;9.466;2023-05-20T07:13:53;18.20;97.60
18974;DHT22;9621;48.690;9.466;2023-05-20T07:16:20;18.20;97.40
18974;DHT22;9621;48.690;9.466;2023-05-20T07:18:47;18.10;97.00
18974;DHT22;9621;48.690;9.466;2023-05-20T07:21:14;17.90;97.20
18974;DHT22;9621;48.690;9.466;2023-05-20T07:23:40;17.80;97.20
18974;DHT22;9621;48.690;9.466;2023-05-20T07:26:09;17.70;96.90
18974;DHT22;9621;48.690;9.466;2023-05-20T07:28:37;17.60;96.60
18974;DHT22;9621;48.690;9.466;2023-05-20T07:31:04;17.40;96.80
18974;DHT22;9621;48.690;9.466;2023-05-20T07:33:31;17.20;96.90
18974;DHT22;9621;48.690;9.466;2023-05-20T07:35:58;17.10;96.80
18974;DHT22;9621;48.690;9.466;2023-05-20T07:38:25;16.90;96.90
18974;DHT22;9621;48.690;9.466;2023-05-20T07:40:51;16.80;97.10
18974;DHT22;9621;48.690;9.466;2023-05-20T07:43:20;16.80;97.50
18974;DHT22;9621;48.690;9.466;2023-05-20T07:45:47;16.80;97.50
18974;DHT22;9621;48.690;9.466;2023-05-20T07:48:13;16.80;97.40
18974;DHT22;9621;48.690;9.466;2023-05-20T07:50:40;16.90;97.30
18974;DHT22;9621;48.690;9.466;2023-05-20T07:53:07;16.90;97.20
18974;DHT22;9621;48.690;9.466;2023-05-20T07:55:34;16.90;97.00
18974;DHT22;9621;48.690;9.466;2023-05-20T07:58:01;16.90;97.10
18974;DHT22;9621;48.690;9.466;2023-05-20T08:00:30;16.90;97.10
18974;DHT22;9621;48.690;9.466;2023-05-20T08:02:57;16.90;96.70
18974;DHT22;9621;48.690;9.466;2023-05-20T08:05:24;16.90;97.10
18974;DHT22;9621;48.690;9.466;2023-05-20T08:07:51;16.90;97.60
18974;DHT22;9621;48.690;9.466;2023-05-20T08:10:18;17.00;97.50
18974;DHT22;9621;48.690;9.466;2023-05-20T08:12:45;17.20;97.70
18974;DHT22;9621;48.690;9.466;2023-05-20T08:15:12;17.40;97.00
18974;DHT22;9621;48.690;9.466;2023-05-20T08:17:41;17.50;96.30
18974;DHT22;9621;48.690;9.466;2023-05-20T08:20:08;17.50;96.10
18974;DHT22;9621;48.690;9.466;2023-05-20T08:22:37;17.50;96.20
18974;DHT22;9621;48.690;9.466;2023-05-20T08:25:07;17.50;96.10
18974;DHT22;9621;48.690;9.466;2023-05-20T08:27:35;17.60;95.70
18974;DHT22;9621;48.690;9.466;2023-05-20T08:30:02;17.60;95.90
18974;DHT22;9621;48.690;9.466;2023-05-20T08:32:29;17.60;95.90
18974;DHT22;9621;48.690;9.466;2023-05-20T08:34:57;17.80;95.90
18974;DHT22;9621;48.690;9.466;2023-05-20T08:37:26;17.90;95.90
18974;DHT22;9621;48.690;9.466;2023-05-20T08:39:53;18.20;95.90
18974;DHT22;9621;48.690;9.466;2023-05-20T08:42:21;18.40;95.80
18974;DHT22;9621;48.690;9.466;2023-05-20T08:44:51;18.70;94.90
18974;DHT22;9621;48.690;9.466;2023-05-20T08:47:19;19.00;94.40
18974;DHT22;9621;48.690;9.466;2023-05-20T08:49:47;19.30;93.60
18974;DHT22;9621;48.690;9.466;2023-05-20T08:52:16;19.60;94.00
18974;DHT22;9621;48.690;9.466;2023-05-20T08:54:45;20.10;93.30
18974;DHT22;9621;48.690;9.466;2023-05-20T08:57:12;20.60;92.80
18974;DHT22;9621;48.690;9.466;2023-05-20T08:59:41;21.10;92.30
18974;DHT22;9621;48.690;9.466;2023-05-20T09:02:09;21.60;90.60
18974;DHT22;9621;48.690;9.466;2023-05-20T09:04:36;22.10;90.30
18974;DHT22;9621;48.690;9.466;2023-05-20T09:07:03;22.60;89.60
18974;DHT22;9621;48.690;9.466;2023-05-20T09:09:32;23.00;88.50
18974;DHT22;9621;48.690;9.466;2023-05-20T09:11:59;23.40;86.60
18974;DHT22;9621;48.690;9.466;2023-05-20T09:14:27;24.00;84.80
18974;DHT22;9621;48.690;9.466;2023-05-20T09:16:54;24.30;81.40
18974;DHT22;9621;48.690;9.466;2023-05-20T09:19:21;24.40;78.50
18974;DHT22;9621;48.690;9.466;2023-05-20T09:21:51;24.40;76.90
18974;DHT22;9621;48.690;9.466;2023-05-20T09:24:22;24.30;75.90
18974;DHT22;9621;48.690;9.466;2023-05-20T09:26:51;24.30;75.40
18974;DHT22;9621;48.690;9.466;2023-05-20T09:29:18;24.20;73.80
18974;DHT22;9621;48.690;9.466;2023-05-20T09:31:46;24.00;75.90
18974;DHT22;9621;48.690;9.466;2023-05-20T09:34:13;23.80;75.40
18974;DHT22;9621;48.690;9.466;2023-05-20T09:36:42;23.70;75.50
18974;DHT22;9621;48.690;9.466;2023-05-20T09:39:12;23.70;74.70
18974;DHT22;9621;48.690;9.466;2023-05-20T09:41:48;23.80;75.00
18974;DHT22;9621;48.690;9.466;2023-05-20T09:44:20;24.00;71.70
18974;DHT22;9621;48.690;9.466;2023-05-20T09:46:48;24.10;73.80
18974;DHT22;9621;48.690;9.466;2023-05-20T09:49:18;24.10;72.80
18974;DHT22;9621;48.690;9.466;2023-05-20T09:51:47;24.10;71.60
18974;DHT22;9621;48.690;9.466;2023-05-20T09:54:17;24.20;72.70
18974;DHT22;9621;48.690;9.466;2023-05-20T09:56:45;24.20;71.40
18974;DHT22;9621;48.690;9.466;2023-05-20T09:59:14;24.20;71.60
18974;DHT22;9621;48.690;9.466;2023-05-20T10:01:43;24.30;71.40
18974;DHT22;9621;48.690;9.466;2023-05-20T10:04:11;24.40;70.40
18974;DHT22;9621;48.690;9.466;2023-05-20T10:06:59;24.30;70.60
18974;DHT22;9621;48.690;9.466;2023-05-20T10:09:41;24.30;68.00
18974;DHT22;9621;48.690;9.466;2023-05-20T10:12:19;24.20;68.10
18974;DHT22;9621;48.690;9.466;2023-05-20T10:14:59;24.10;68.60
18974;DHT22;9621;48.690;9.466;2023-05-20T10:17:39;23.90;69.70
18974;DHT22;9621;48.690;9.466;2023-05-20T10:20:08;23.90;70.10
18974;DHT22;9621;48.690;9.466;2023-05-20T10:22:36;24.00;70.90
18974;DHT22;9621;48.690;9.466;2023-05-20T10:25:05;24.10;70.00
18974;DHT22;9621;48.690;9.466;2023-05-20T10:27:42;24.20;69.30
18974;DHT22;9621;48.690;9.466;2023-05-20T10:30:15;24.30;67.10
18974;DHT22;9621;48.690;9.466;2023-05-20T10:32:51;24.40;66.50
18974;DHT22;9621;48.690;9.466;2023-05-20T10:35:21;24.40;67.20
18974;DHT22;9621;48.690;9.466;2023-05-20T10:37:51;24.50;68.30
18974;DHT22;9621;48.690;9.466;2023-05-20T10:40:19;24.60;67.50
18974;DHT22;9621;48.690;9.466;2023-05-20T10:42:47;24.60;67.80
18974;DHT22;9621;48.690;9.466;2023-05-20T10:45:24;24.70;67.90
18974;DHT22;9621;48.690;9.466;2023-05-20T10:47:57;24.80;66.30
18974;DHT22;9621;48.690;9.466;2023-05-20T10:50:28;24.70;65.60
18974;DHT22;9621;48.690;9.466;2023-05-20T10:53:02;24.70;66.00
18974;DHT22;9621;48.690;9.466;2023-05-20T10:55:35;24.70;66.30
18974;DHT22;9621;48.690;9.466;2023-05-20T10:58:03;24.80;67.20
18974;DHT22;9621;48.690;9.466;2023-05-20T11:00:30;25.00;67.80
18974;DHT22;9621;48.690;9.466;2023-05-20T11:02:58;25.20;67.50
18974;DHT22;9621;48.690;9.466;2023-05-20T11:05:26;25.40;67.00
18974;DHT22;9621;48.690;9.466;2023-05-20T11:08:00;25.50;65.70
18974;DHT22;9621;48.690;9.466;2023-05-20T11:10:27;25.50;64.20
18974;DHT22;9621;48.690;9.466;2023-05-20T11:12:55;25.60;64.60
18974;DHT22;9621;48.690;9.466;2023-05-20T11:15:22;25.50;64.40
18974;DHT22;9621;48.690;9.466;2023-05-20T11:17:53;25.40;64.00
18974;DHT22;9621;48.690;9.466;2023-05-20T11:20:22;25.30;63.10
18974;DHT22;9621;48.690;9.466;2023-05-20T11:22:49;25.10;63.00
18974;DHT22;9621;48.690;9.466;2023-05-20T11:25:16;25.10;63.90
18974;DHT22;9621;48.690;9.466;2023-05-20T11:27:44;25.00;63.40
18974;DHT22;9621;48.690;9.466;2023-05-20T11:30:12;24.90;63.60
18974;DHT22;9621;48.690;9.466;2023-05-20T11:32:41;24.80;63.70
18974;DHT22;9621;48.690;9.466;2023-05-20T11:35:21;24.70;64.50
18974;DHT22;9621;48.690;9.466;2023-05-20T11:37:54;24.60;64.00
18974;DHT22;9621;48.690;9.466;2023-05-20T11:40:23;24.60;63.80
18974;DHT22;9621;48.690;9.466;2023-05-20T11:42:53;24.60;64.60
18974;DHT22;9621;48.690;9.466;2023-05-20T11:45:20;24.70;64.60
18974;DHT22;9621;48.690;9.466;2023-05-20T11:47:58;24.80;64.60
18974;DHT22;9621;48.690;9.466;2023-05-20T11:50:26;24.90;64.10
18974;DHT22;9621;48.690;9.466;2023-05-20T11:52:57;25.00;63.50
18974;DHT22;9621;48.690;9.466;2023-05-20T11:55:25;24.90;62.20
18974;DHT22;9621;48.690;9.466;2023-05-20T11:57:52;24.80;62.90
18974;DHT22;9621;48.690;9.466;2023-05-20T12:00:21;24.60;62.80
18974;DHT22;9621;48.690;9.466;2023-05-20T12:02:48;24.40;63.20
18974;DHT22;9621;48.690;9.466;2023-05-20T12:05:15;24.30;64.30
18974;DHT22;9621;48.690;9.466;2023-05-20T12:07:44;24.10;63.90
18974;DHT22;9621;48.690;9.466;2023-05-20T12:10:11;24.00;64.10
18974;DHT22;9621;48.690;9.466;2023-05-20T12:12:38;23.90;63.70
18974;DHT22;9621;48.690;9.466;2023-05-20T12:15:06;23.80;63.80
18974;DHT22;9621;48.690;9.466;2023-05-20T12:17:50;23.70;64.60
18974;DHT22;9621;48.690;9.466;2023-05-20T12:20:23;23.70;63.60
18974;DHT22;9621;48.690;9.466;2023-05-20T12:22:51;23.60;64.90
18974;DHT22;9621;48.690;9.466;2023-05-20T12:25:18;23.60;64.20
18974;DHT22;9621;48.690;9.466;2023-05-20T12:27:47;23.70;65.40
18974;DHT22;9621;48.690;9.466;2023-05-20T12:30:17;23.70;65.00
18974;DHT22;9621;48.690;9.466;2023-05-20T12:32:44;23.80;64.50
18974;DHT22;9621;48.690;9.466;2023-05-20T12:35:12;23.80;64.60
18974;DHT22;9621;48.690;9.466;2023-05-20T12:37:39;24.00;65.10
18974;DHT22;9621;48.690;9.466;2023-05-20T12:40:09;24.10;65.10
18974;DHT22;9621;48.690;9.466;2023-05-20T12:42:37;24.50;65.50
18974;DHT22;9621;48.690;9.466;2023-05-20T12:45:05;24.90;64.90
18974;DHT22;9621;48.690;9.466;2023-05-20T12:47:33;25.20;63.10
18974;DHT22;9621;48.690;9.466;2023-05-20T12:50:01;25.40;62.40
18974;DHT22;9621;48.690;9.466;2023-05-20T12:52:28;25.50;62.10
18974;DHT22;9621;48.690;9.466;2023-05-20T12:54:55;25.70;61.50
18974;DHT22;9621;48.690;9.466;2023-05-20T12:57:24;25.80;60.40
18974;DHT22;9621;48.690;9.466;2023-05-20T12:59:51;25.80;59.60
18974;DHT22;9621;48.690;9.466;2023-05-20T13:02:18;25.80;59.70
18974;DHT22;9621;48.690;9.466;2023-05-20T13:04:45;25.60;59.80
18974;DHT22;9621;48.690;9.466;2023-05-20T13:07:12;25.50;59.00
18974;DHT22;9621;48.690;9.466;2023-05-20T13:09:39;25.40;59.90
18974;DHT22;9621;48.690;9.466;2023-05-20T13:12:06;25.50;61.50
18974;DHT22;9621;48.690;9.466;2023-05-20T13:14:34;25.70;62.20
18974;DHT22;9621;48.690;9.466;2023-05-20T13:17:01;26.00;59.70
18974;DHT22;9621;48.690;9.466;2023-05-20T13:19:28;26.20;59.20
18974;DHT22;9621;48.690;9.466;2023-05-20T13:21:55;26.20;58.80
18974;DHT22;9621;48.690;9.466;2023-05-20T13:24:22;26.20;58.50
18974;DHT22;9621;48.690;9.466;2023-05-20T13:26:49;26.10;58.00
18974;DHT22;9621;48.690;9.466;2023-05-20T13:29:16;26.00;57.70
18974;DHT22;9621;48.690;9.466;2023-05-20T13:31:46;25.80;58.10
18974;DHT22;9621;48.690;9.466;2023-05-20T13:34:13;25.60;57.20
18974;DHT22;9621;48.690;9.466;2023-05-20T13:36:40;25.40;57.70
18974;DHT22;9621;48.690;9.466;2023-05-20T13:39:06;25.20;57.80
18974;DHT22;9621;48.690;9.466;2023-05-20T13:41:33;25.00;57.60
18974;DHT22;9621;48.690;9.466;2023-05-20T13:44:00;24.80;57.30
18974;DHT22;9621;48.690;9.466;2023-05-20T13:46:27;24.60;58.50
18974;DHT22;9621;48.690;9.466;2023-05-20T13:48:55;24.60;58.20
18974;DHT22;9621;48.690;9.466;2023-05-20T13:51:22;24.60;59.00
18974;DHT22;9621;48.690;9.466;2023-05-20T13:53:49;24.80;59.50
18974;DHT22;9621;48.690;9.466;2023-05-20T13:56:16;25.00;58.60
18974;DHT22;9621;48.690;9.466;2023-05-20T13:58:44;25.20;58.80
18974;DHT22;9621;48.690;9.466;2023-05-20T14:01:11;25.30;58.80
18974;DHT22;9621;48.690;9.466;2023-05-20T14:03:38;25.40;58.60
18974;DHT22;9621;48.690;9.466;2023-05-20T14:06:06;25.50;59.20
18974;DHT22;9621;48.690;9.466;2023-05-20T14:08:33;25.60;57.70
18974;DHT22;9621;48.690;9.466;2023-05-20T14:11:00;25.70;57.40
18974;DHT22;9621;48.690;9.466;2023-05-20T14:13:28;25.60;57.40
18974;DHT22;9621;48.690;9.466;2023-05-20T14:15:55;25.50;57.50
18974;DHT22;9621;48.690;9.466;2023-05-20T14:18:21;25.40;56.90
18974;DHT22;9621;48.690;9.466;2023-05-20T14:20:48;25.40;57.20
18974;DHT22;9621;48.690;9.466;2023-05-20T14:23:17;25.20;56.60
18974;DHT22;9621;48.690;9.466;2023-05-20T14:25:44;25.20;57.70
18974;DHT22;9621;48.690;9.466;2023-05-20T14:28:10;25.10;57.40
18974;DHT22;9621;48.690;9.466;2023-05-20T14:30:37;25.10;57.10
18974;DHT22;9621;48.690;9.466;2023-05-20T14:33:04;25.00;57.30
18974;DHT22;9621;48.690;9.466;2023-05-20T14:35:31;25.00;57.50
18974;DHT22;9621;48.690;9.466;2023-05-20T14:37:58;25.00;57.90
18974;DHT22;9621;48.690;9.466;2023-05-20T14:40:26;25.20;58.30
18974;DHT22;9621;48.690;9.466;2023-05-20T14:42:53;25.40;58.00
18974;DHT22;9621;48.690;9.466;2023-05-20T14:45:21;25.50;58.00
18974;DHT22;9621;48.690;9.466;2023-05-20T14:47:48;25.60;57.10
18974;DHT22;9621;48.690;9.466;2023-05-20T14:50:15;25.60;57.20
18974;DHT22;9621;48.690;9.466;2023-05-20T14:52:42;25.70;57.20
18974;DHT22;9621;48.690;9.466;2023-05-20T14:55:09;25.90;57.80
18974;DHT22;9621;48.690;9.466;2023-05-20T14:57:37;26.10;57.40
18974;DHT22;9621;48.690;9.466;2023-05-20T15:00:05;26.20;56.10
18974;DHT22;9621;48.690;9.466;2023-05-20T15:02:32;26.20;55.80
18974;DHT22;9621;48.690;9.466;2023-05-20T15:05:00;26.00;55.90
18974;DHT22;9621;48.690;9.466;2023-05-20T15:07:28;26.00;56.00
18974;DHT22;9621;48.690;9.466;2023-05-20T15:09:55;25.80;55.80
18974;DHT22;9621;48.690;9.466;2023-05-20T15:12:22;25.70;56.00
18974;DHT22;9621;48.690;9.466;2023-05-20T15:14:50;25.60;55.70
18974;DHT22;9621;48.690;9.466;2023-05-20T15:17:17;25.40;55.50
18974;DHT22;9621;48.690;9.466;2023-05-20T15:19:43;25.20;55.70
18974;DHT22;9621;48.690;9.466;2023-05-20T15:22:10;24.90;56.00
18974;DHT22;9621;48.690;9.466;2023-05-20T15:24:38;24.70;56.60
18974;DHT22;9621;48.690;9.466;2023-05-20T15:27:04;24.60;57.20
18974;DHT22;9621;48.690;9.466;2023-05-20T15:29:31;24.40;56.90
18974;DHT22;9621;48.690;9.466;2023-05-20T15:31:59;24.20;57.60
18974;DHT22;9621;48.690;9.466;2023-05-20T15:34:26;24.00;58.10
18974;DHT22;9621;48.690;9.466;2023-05-20T15:36:53;23.90;58.60
18974;DHT22;9621;48.690;9.466;2023-05-20T15:39:20;23.90;59.10
18974;DHT22;9621;48.690;9.466;2023-05-20T15:41:47;23.80;59.40
18974;DHT22;9621;48.690;9.466;2023-05-20T15:44:16;23.80;59.30
18974;DHT22;9621;48.690;9.466;2023-05-20T15:46:43;23.90;59.80
18974;DHT22;9621;48.690;9.466;2023-05-20T15:49:12;23.90;59.20
18974;DHT22;9621;48.690;9.466;2023-05-20T15:51:39;24.00;60.10
18974;DHT22;9621;48.690;9.466;2023-05-20T15:54:06;24.20;59.90